Time;durP1;ratioP1;P1;durP2;ratioP2;P2;SDS_P1;SDS_P2;PMS_P1;PMS_P2;Temp;Humidity;BMP_temperature;BMP_pressure;BME280_temperature;BME280_humidity;BME280_pressure;Samples;Min_cycle;Max_cycle;Signal;HPM_P1;HPM_P2
2022/06/10 00:17:51;;;;;;;7.40;2.70;;;;;;;21.36;48.42;102022.13;5056718;23;20133;-78
2022/06/10 00:20:21;;;;;;;6.38;2.45;;;;;;;21.35;48.55;102017.75;4851482;29;20033;-78
2022/06/10 00:22:47;;;;;;;5.70;2.35;;;;;;;21.35;48.63;102019.50;4866581;29;20037;-79
2022/06/10 00:25:12;;;;;;;6.55;2.53;;;;;;;21.33;48.53;102016.88;4866585;29;20064;-78
2022/06/10 00:27:38;;;;;;;7.28;2.80;;;;;;;21.31;48.75;102007.31;4836153;29;20025;-78
2022/06/10 00:30:06;;;;;;;6.22;2.70;;;;;;;21.34;48.49;102015.16;4851598;29;20093;-78
2022/06/10 00:32:32;;;;;;;7.35;2.72;;;;;;;21.33;48.49;102010.78;4875293;29;20160;-78
2022/06/10 00:34:57;;;;;;;6.60;2.65;;;;;;;21.34;48.62;102009.94;4867013;29;20472;-78
2022/06/10 00:37:23;;;;;;;6.10;2.83;;;;;;;21.34;48.58;102016.03;4851649;29;20033;-78
2022/06/10 00:39:49;;;;;;;6.57;2.42;;;;;;;21.33;48.49;102005.56;4851532;29;20128;-78
2022/06/10 00:42:15;;;;;;;14.10;2.72;;;;;;;21.34;48.66;102012.53;4851342;29;20093;-78
2022/06/10 00:44:52;;;;;;;6.90;2.58;;;;;;;21.33;48.68;102011.66;4866795;29;20040;-78
2022/06/10 00:47:47;;;;;;;5.05;1.92;;;;;;;21.34;48.61;102007.31;4866564;29;20506;-78
2022/06/10 00:50:22;;;;;;;5.38;2.30;;;;;;;21.35;48.76;102014.28;4847281;29;20047;-79
2022/06/10 00:53:05;;;;;;;6.07;2.50;;;;;;;21.33;48.78;102010.78;4883104;29;20112;-78
2022/06/10 00:55:30;;;;;;;8.45;2.47;;;;;;;21.35;48.62;102016.88;4866636;29;20025;-78
2022/06/10 00:58:00;;;;;;;6.93;2.58;;;;;;;21.33;48.71;102011.66;4835943;29;20044;-78
2022/06/10 01:00:25;;;;;;;6.78;2.45;;;;;;;21.32;48.82;102007.31;4866446;29;20468;-78
2022/06/10 01:02:51;;;;;;;6.43;2.60;;;;;;;21.33;48.70;102010.78;4851217;29;20041;-78
2022/06/10 01:05:20;;;;;;;6.72;2.53;;;;;;;21.33;48.73;102011.66;4835442;29;20044;-79
2022/06/10 01:08:16;;;;;;;6.65;2.45;;;;;;;21.33;48.92;102003.78;4866079;29;20119;-79
2022/06/10 01:11:16;;;;;;;6.82;2.40;;;;;;;21.34;48.90;102005.56;4863413;29;20068;-79
2022/06/10 01:13:56;;;;;;;6.28;2.47;;;;;;;21.35;48.97;102011.66;4861273;29;20067;-78
2022/06/10 01:16:22;;;;;;;5.25;2.40;;;;;;;21.36;48.88;102016.00;4866886;29;20056;-79
2022/06/10 01:19:21;;;;;;;4.43;2.00;;;;;;;21.34;48.99;102018.66;4866829;29;20029;-78
2022/06/10 01:22:17;;;;;;;6.40;2.35;;;;;;;21.35;48.83;102011.66;4866605;29;20091;-79
2022/06/10 01:25:14;;;;;;;5.53;2.45;;;;;;;21.33;48.85;102008.16;4868361;29;20025;-79
2022/06/10 01:27:48;;;;;;;5.55;2.03;;;;;;;21.33;48.92;102018.66;4867682;29;20036;-79
2022/06/10 01:30:21;;;;;;;5.53;2.30;;;;;;;21.33;48.94;102010.78;4867956;29;20177;-78
2022/06/10 01:32:46;;;;;;;4.72;2.08;;;;;;;21.33;49.01;102011.66;4867847;29;20503;-78
2022/06/10 01:35:33;;;;;;;7.93;2.47;;;;;;;21.34;48.88;102012.53;4868019;29;20037;-79
2022/06/10 01:38:09;;;;;;;5.10;2.20;;;;;;;21.34;48.99;102010.78;4867995;29;20025;-78
2022/06/10 01:40:53;;;;;;;4.38;1.90;;;;;;;21.33;48.81;102009.03;4867833;29;20101;-78
2022/06/10 01:43:46;;;;;;;7.20;2.38;;;;;;;21.34;49.04;102010.78;4867469;29;20153;-78
2022/06/10 01:46:27;;;;;;;6.13;2.35;;;;;;;21.35;48.96;102007.28;4884007;29;20105;-78
2022/06/10 01:49:24;;;;;;;5.68;2.00;;;;;;;21.34;48.90;102005.56;4883865;29;20182;-78
2022/06/10 01:51:58;;;;;;;5.85;1.88;;;;;;;21.34;49.13;102016.03;4867390;29;20481;-78
2022/06/10 01:54:34;;;;;;;4.43;2.17;;;;;;;21.34;48.76;102009.94;4885831;29;20052;-77
2022/06/10 01:57:05;;;;;;;4.88;1.70;;;;;;;21.33;48.77;102008.16;4869096;29;20021;-78
2022/06/10 01:59:36;;;;;;;5.97;2.17;;;;;;;21.34;48.93;102010.78;4882446;29;20085;-78
2022/06/10 02:02:12;;;;;;;4.22;1.90;;;;;;;21.35;48.81;102009.91;4865409;29;20058;-78
2022/06/10 02:04:49;;;;;;;5.35;1.98;;;;;;;21.33;48.96;102009.03;4882274;29;20033;-78
2022/06/10 02:07:28;;;;;;;4.20;2.05;;;;;;;21.34;49.04;102013.41;4865729;29;20093;-78
2022/06/10 02:10:27;;;;;;;6.72;1.95;;;;;;;21.34;48.93;102015.16;4882270;29;20025;-78
2022/06/10 02:13:02;;;;;;;4.85;1.88;;;;;;;21.35;48.96;102009.03;4865299;29;20032;-79
2022/06/10 02:15:32;;;;;;;4.50;1.90;;;;;;;21.35;49.06;102019.50;4881792;29;20098;-78
2022/06/10 02:18:05;;;;;;;4.95;1.80;;;;;;;21.35;49.05;102019.50;4864730;29;20053;-78
2022/06/10 02:20:32;;;;;;;4.45;2.00;;;;;;;21.35;49.04;102019.50;4864841;29;20488;-78
2022/06/10 02:23:01;;;;;;;6.00;1.92;;;;;;;21.35;48.86;102027.38;4864996;29;20396;-78
2022/06/10 02:25:39;;;;;;;5.15;1.88;;;;;;;21.32;48.94;102020.41;4865622;29;20029;-79
2022/06/10 02:28:09;;;;;;;4.25;1.70;;;;;;;21.30;49.00;102018.69;4884158;29;20025;-79
2022/06/10 02:30:43;;;;;;;4.57;1.75;;;;;;;21.31;49.19;102017.78;4865989;29;20392;-79
2022/06/10 02:33:08;;;;;;;;;;;;;;;21.33;49.23;102021.25;4866410;29;20047;-78
2022/06/10 02:35:40;;;;;;;6.97;2.10;;;;;;;21.33;49.27;102022.13;4865932;29;19965;-79
2022/06/10 02:38:37;;;;;;;5.13;1.80;;;;;;;21.32;49.21;102017.78;4872491;29;20025;-79
2022/06/10 02:41:11;;;;;;;4.63;1.83;;;;;;;21.33;49.43;102021.25;4861263;29;20494;-79
2022/06/10 02:43:56;;;;;;;7.70;2.17;;;;;;;21.32;49.31;102017.78;4866740;29;20472;-78
2022/06/10 02:46:31;;;;;;;2.80;1.40;;;;;;;21.33;49.47;102019.50;4866798;29;20115;-78
2022/06/10 02:49:14;;;;;;;6.63;1.85;;;;;;;21.33;49.49;102024.75;4866201;29;20036;-79
2022/06/10 02:51:40;;;;;;;5.25;1.80;;;;;;;21.34;49.44;102017.78;4865550;29;20044;-78
2022/06/10 02:54:12;;;;;;;3.92;1.73;;;;;;;21.32;49.59;102020.41;4865482;29;20401;-79
2022/06/10 02:56:37;;;;;;;6.80;1.77;;;;;;;21.33;49.43;102013.41;4881964;29;20442;-78
2022/06/10 03:01:59;;;;;;;4.10;1.55;;;;;;;21.33;49.52;102021.25;4883922;29;20534;-79
2022/06/10 03:05:01;;;;;;;7.32;1.98;;;;;;;21.32;49.67;102025.63;4867252;29;20403;-79
2022/06/10 03:07:55;;;;;;;3.55;1.40;;;;;;;21.32;49.83;102016.91;4866804;29;20040;-79
2022/06/10 03:10:41;;;;;;;4.30;1.65;;;;;;;21.34;49.59;102028.25;4848107;29;20048;-79
2022/06/10 03:13:27;;;;;;;4.25;1.50;;;;;;;21.32;49.85;102023.03;4865923;29;20033;-79
2022/06/10 03:16:11;;;;;;;3.35;1.58;;;;;;;21.33;49.44;102026.50;4866762;29;20028;-79
2022/06/10 03:19:04;;;;;;;4.28;1.55;;;;;;;21.33;49.63;102021.25;4872282;29;20094;-78
2022/06/10 03:21:57;;;;;;;4.28;1.58;;;;;;;21.32;49.90;102020.41;4865324;29;20028;-79
2022/06/10 03:24:48;;;;;;;4.72;1.60;;;;;;;21.33;49.87;102021.25;4866596;29;20021;-79
2022/06/10 03:27:52;;;;;;;3.47;1.73;;;;;;;21.33;49.82;102029.97;4883187;29;20029;-78
2022/06/10 03:30:25;;;;;;;4.50;1.70;;;;;;;21.34;49.95;102025.63;4825926;29;20034;-78
2022/06/10 03:33:03;;;;;;;;;;;;;;;21.33;49.93;102029.97;4826395;29;20041;-79
2022/06/10 03:35:53;;;;;;;4.45;1.38;;;;;;;21.32;49.86;102032.63;4860091;29;19967;-79
2022/06/10 03:38:19;;;;;;;3.88;1.55;;;;;;;21.35;49.69;102037.84;4866658;29;20048;-79
2022/06/10 03:40:55;;;;;;;6.78;1.75;;;;;;;21.33;50.02;102031.75;4850690;29;20362;-79
2022/06/10 03:43:21;;;;;;;5.00;1.65;;;;;;;21.33;49.97;102031.75;4866932;29;20541;-79
2022/06/10 03:45:56;;;;;;;5.53;1.50;;;;;;;21.31;50.08;102031.75;4867277;29;20515;-79
2022/06/10 03:48:23;;;;;;;4.78;1.38;;;;;;;21.32;50.04;102030.00;4867073;29;20025;-79
2022/06/10 03:50:50;;;;;;;4.90;1.48;;;;;;;21.32;50.01;102030.88;4867026;29;20044;-78
2022/06/10 03:53:18;;;;;;;4.63;1.98;;;;;;;21.31;50.25;102034.34;4866941;29;20098;-79
2022/06/10 03:55:44;;;;;;;4.43;1.50;;;;;;;21.30;50.05;102032.63;4866638;29;20071;-79
2022/06/10 03:58:10;;;;;;;5.45;1.70;;;;;;;21.28;50.11;102030.91;4852428;29;20033;-79
2022/06/10 04:00:36;;;;;;;5.47;1.80;;;;;;;21.28;50.29;102034.38;4872801;29;20053;-78
2022/06/10 04:03:02;;;;;;;5.07;1.55;;;;;;;21.30;50.34;102037.00;4866194;29;20048;-79
2022/06/10 04:05:27;;;;;;;4.80;1.73;;;;;;;21.31;50.03;102038.72;4851670;29;20045;-79
2022/06/10 04:07:53;;;;;;;5.78;1.85;;;;;;;21.28;50.18;102034.38;4835366;29;20499;-79
2022/06/10 04:10:22;;;;;;;6.10;1.58;;;;;;;21.29;50.21;102037.88;4851902;29;20033;-79
2022/06/10 04:12:48;;;;;;;4.05;1.48;;;;;;;21.28;50.20;102039.63;4867094;29;20392;-79
2022/06/10 04:15:14;;;;;;;3.85;1.70;;;;;;;21.29;50.34;102033.50;4868083;29;20022;-79
2022/06/10 04:17:42;;;;;;;3.90;1.50;;;;;;;21.30;50.27;102037.88;4867441;29;20056;-80
2022/06/10 04:20:11;;;;;;;4.32;1.58;;;;;;;21.32;50.20;102035.25;4867914;29;20048;-79
2022/06/10 04:22:37;;;;;;;6.40;1.70;;;;;;;21.31;50.46;102041.34;4851660;29;20380;-79
2022/06/10 04:25:03;;;;;;;4.45;1.70;;;;;;;21.33;49.97;102037.84;4835791;29;20029;-79
2022/06/10 04:27:28;;;;;;;5.50;1.63;;;;;;;21.35;50.15;102046.56;4851452;29;20036;-79
2022/06/10 04:29:54;;;;;;;4.20;1.48;;;;;;;21.36;50.08;102039.56;4866382;29;20445;-79
2022/06/10 04:32:19;;;;;;;3.40;1.55;;;;;;;21.36;50.25;102044.78;4836448;29;20655;-79
2022/06/10 04:34:44;;;;;;;3.83;1.55;;;;;;;21.36;50.36;102044.78;4836261;29;20032;-79
2022/06/10 04:37:10;;;;;;;4.18;1.60;;;;;;;21.37;50.36;102046.56;4851273;29;20124;-79
2022/06/10 04:39:36;;;;;;;2.88;1.20;;;;;;;21.36;50.21;102042.19;4835720;29;20123;-79
2022/06/10 04:42:02;;;;;;;5.78;1.50;;;;;;;21.39;50.37;102046.56;4870507;29;20021;-79
2022/06/10 04:44:27;;;;;;;3.08;1.40;;;;;;;21.39;50.73;102039.56;4853708;29;20484;-79
2022/06/10 04:46:52;;;;;;;4.43;1.33;;;;;;;21.41;50.33;102039.56;4850927;29;20047;-79
2022/06/10 04:49:18;;;;;;;7.32;1.80;;;;;;;21.39;50.40;102039.56;4838581;29;20029;-79
2022/06/10 04:51:43;;;;;;;4.65;1.35;;;;;;;21.38;50.48;102037.81;4855485;29;20029;-79
2022/06/10 04:54:10;;;;;;;3.22;1.38;;;;;;;21.38;50.37;102037.81;4837474;29;20060;-80
2022/06/10 04:56:37;;;;;;;5.50;1.75;;;;;;;21.40;50.17;102040.41;4868477;29;20029;-79
2022/06/10 04:59:02;;;;;;;3.97;1.52;;;;;;;21.42;50.22;102043.94;4868216;29;20036;-79
2022/06/10 05:01:28;;;;;;;5.88;1.58;;;;;;;21.45;50.40;102036.03;4839340;29;20033;-79
2022/06/10 05:03:53;;;;;;;6.32;1.60;;;;;;;21.42;50.34;102039.56;4868030;29;20392;-79
2022/06/10 05:06:19;;;;;;;3.97;1.45;;;;;;;21.41;50.63;102042.19;4870382;29;20056;-79
2022/06/10 05:08:44;;;;;;;4.28;1.50;;;;;;;21.38;50.59;102040.41;4868849;29;20165;-78
2022/06/10 05:11:09;;;;;;;4.93;1.52;;;;;;;21.36;50.20;102040.44;4853181;29;20460;-79
2022/06/10 05:13:36;;;;;;;4.10;1.30;;;;;;;21.35;50.44;102043.06;4857072;29;20063;-78
2022/06/10 05:16:03;;;;;;;2.85;1.15;;;;;;;21.37;50.55;102044.78;4841874;29;20025;-80
2022/06/10 05:18:30;;;;;;;3.85;1.52;;;;;;;21.44;50.22;102036.94;4874968;29;20032;-79
2022/06/10 05:20:55;;;;;;;5.07;1.27;;;;;;;21.55;50.06;102037.72;4856652;29;20055;-78
2022/06/10 05:23:23;;;;;;;4.28;1.23;;;;;;;21.64;49.60;102040.28;4854004;29;20504;-77
2022/06/10 05:25:50;;;;;;;2.92;1.40;;;;;;;21.66;49.50;102040.28;4871365;29;20029;-79
2022/06/10 05:28:16;;;;;;;3.63;1.50;;;;;;;21.68;49.24;102043.75;4868704;29;20120;-78
2022/06/10 05:30:42;;;;;;;3.92;1.58;;;;;;;21.69;49.31;102043.75;4840826;29;20036;-80
2022/06/10 05:33:09;;;;;;;10.88;2.05;;;;;;;21.72;49.48;102045.47;4859207;29;20029;-80
2022/06/10 05:35:35;;;;;;;5.90;2.17;;;;;;;21.76;49.83;102041.94;4877741;29;20025;-82
2022/06/10 05:38:01;;;;;;;7.13;2.25;;;;;;;21.77;49.69;102046.28;4862721;29;20029;-79
2022/06/10 05:40:29;;;;;;;9.90;2.10;;;;;;;21.78;49.83;102046.28;4856823;29;20081;-80
2022/06/10 05:42:55;;;;;;;6.15;1.85;;;;;;;21.81;49.65;102044.53;4871356;29;20089;-80
2022/06/10 05:45:21;;;;;;;5.07;1.73;;;;;;;21.86;49.66;102047.97;4871808;29;20090;-79
2022/06/10 05:47:50;;;;;;;6.20;2.15;;;;;;;21.86;49.37;102045.34;4838685;29;20377;-81
2022/06/10 05:50:24;;;;;;;4.97;1.70;;;;;;;21.87;49.77;102050.59;4871792;29;20037;-80
2022/06/10 05:52:50;;;;;;;3.50;1.40;;;;;;;21.89;49.57;102053.19;4872376;29;20032;-81
2022/06/10 05:55:17;;;;;;;4.47;1.55;;;;;;;21.88;49.73;102051.44;4858071;29;20025;-81
2022/06/10 05:57:42;;;;;;;4.55;1.42;;;;;;;21.86;49.62;102054.09;4875908;29;20552;-82
2022/06/10 06:00:13;;;;;;;5.20;1.67;;;;;;;21.85;49.81;102054.97;4858807;29;20037;-80
2022/06/10 06:02:40;;;;;;;6.80;1.60;;;;;;;21.83;49.63;102051.50;4870300;29;20519;-80
2022/06/10 06:05:07;;;;;;;4.22;1.50;;;;;;;21.82;49.89;102061.97;4863039;29;20037;-80
2022/06/10 06:10:26;;;;;;;4.10;1.42;;;;;;;21.80;49.89;102053.25;4977242;23;20033;-85
2022/06/10 06:12:52;;;;;;;4.80;1.33;;;;;;;21.84;49.79;102054.97;4889043;29;20020;-85
2022/06/10 06:15:18;;;;;;;3.67;1.40;;;;;;;21.85;49.84;102062.81;4872561;29;20101;-84
2022/06/10 06:17:43;;;;;;;5.18;1.50;;;;;;;21.84;49.71;102058.47;4904993;29;20013;-84
2022/06/10 06:20:14;;;;;;;9.20;1.90;;;;;;;21.84;49.49;102063.72;4886708;29;20037;-87
2022/06/10 06:22:40;;;;;;;6.93;1.50;;;;;;;21.83;49.68;102063.72;4887855;29;20013;-84
2022/06/10 06:25:06;;;;;;;5.68;1.60;;;;;;;21.81;49.92;102061.09;4857726;29;20051;-86
2022/06/10 06:27:31;;;;;;;5.60;1.75;;;;;;;21.81;49.90;102073.34;4888869;29;20029;-87
2022/06/10 06:33:11;;;;;;;6.32;1.70;;;;;;;21.83;49.83;102069.84;5039540;24;20053;-81
2022/06/10 06:35:41;;;;;;;7.68;1.70;;;;;;;21.76;49.76;102071.63;4856430;29;20053;-85
2022/06/10 06:38:08;;;;;;;7.03;1.70;;;;;;;21.70;50.15;102070.81;4858320;29;20037;-81
2022/06/10 06:40:36;;;;;;;7.00;1.88;;;;;;;21.69;50.06;102071.69;4845337;29;20066;-83
2022/06/10 06:43:02;;;;;;;5.47;1.90;;;;;;;21.71;50.27;102068.19;4858898;29;20038;-82
2022/06/10 06:45:46;;;;;;;5.88;1.70;;;;;;;21.73;49.98;102068.16;4860772;29;20041;-84
2022/06/10 06:48:12;;;;;;;6.97;1.83;;;;;;;21.76;50.07;102065.53;4850983;29;20067;-83
2022/06/10 06:50:49;;;;;;;10.00;1.92;;;;;;;21.75;50.02;102071.63;4857782;29;20030;-82
2022/06/10 06:53:15;;;;;;;5.65;1.80;;;;;;;21.74;50.03;102073.38;4855301;29;20053;-81
2022/06/10 06:55:41;;;;;;;5.72;1.83;;;;;;;21.76;49.99;102073.38;4855186;29;20061;-82
2022/06/10 06:58:10;;;;;;;8.32;2.20;;;;;;;21.77;49.91;102072.50;4826316;29;20182;-83
2022/06/10 07:00:35;;;;;;;6.57;2.20;;;;;;;21.72;50.24;102076.91;4854957;29;20036;-82
2022/06/10 07:03:00;;;;;;;10.35;2.10;;;;;;;21.73;50.05;102081.25;4854777;29;20113;-82
2022/06/10 07:05:26;;;;;;;10.18;2.40;;;;;;;21.76;50.06;102086.50;4825094;29;20058;-82
2022/06/10 07:07:52;;;;;;;9.80;2.00;;;;;;;21.76;49.93;102083.88;4824483;29;20068;-83
2022/06/10 07:10:19;;;;;;;8.13;2.05;;;;;;;21.74;49.93;102091.72;4839298;29;20029;-83
2022/06/10 07:12:45;;;;;;;11.27;2.25;;;;;;;21.77;49.76;102089.09;4857472;29;20030;-82
2022/06/10 07:15:11;;;;;;;6.45;1.90;;;;;;;21.74;50.03;102085.63;4828948;29;20053;-82
2022/06/10 07:17:38;;;;;;;7.82;2.15;;;;;;;21.73;49.89;102090.00;4843285;29;20036;-82
2022/06/10 07:20:06;;;;;;;8.77;2.28;;;;;;;21.72;50.17;102088.25;4860281;29;20051;-83
2022/06/10 07:22:32;;;;;;;8.85;2.08;;;;;;;21.72;50.02;102101.34;4843242;29;20056;-83
2022/06/10 07:24:57;;;;;;;9.55;2.33;;;;;;;21.66;50.15;102100.53;4856577;29;20034;-79
2022/06/10 07:27:23;;;;;;;6.03;2.20;;;;;;;21.64;50.06;102094.41;4812990;29;20497;-80
2022/06/10 07:29:50;;;;;;;6.88;2.28;;;;;;;21.66;50.02;102100.53;4833715;29;20041;-78
2022/06/10 07:32:16;;;;;;;7.93;2.33;;;;;;;21.65;50.11;102099.66;4846417;29;20030;-81
2022/06/10 07:34:41;;;;;;;11.07;2.15;;;;;;;21.66;50.08;102096.16;4839781;29;20405;-80
2022/06/10 07:37:07;;;;;;;13.60;2.35;;;;;;;21.73;50.23;102100.47;4847185;29;20034;-80
2022/06/10 07:39:33;;;;;;;7.90;1.85;;;;;;;21.76;50.08;102102.22;4846487;29;20038;-81
2022/06/10 07:42:01;;;;;;;7.95;2.10;;;;;;;21.72;50.18;102096.09;4846563;29;20029;-80
2022/06/10 07:44:32;;;;;;;8.60;2.38;;;;;;;21.71;50.19;102103.97;4834461;29;20105;-81
2022/06/10 07:47:01;;;;;;;11.18;2.67;;;;;;;21.75;50.06;102100.44;4864729;29;20112;-79
2022/06/10 07:49:27;;;;;;;10.82;2.80;;;;;;;21.88;49.73;102098.63;4862020;29;20037;-79
2022/06/10 07:51:52;;;;;;;11.27;2.65;;;;;;;21.78;50.22;102100.44;4845441;29;20039;-79
2022/06/10 07:54:18;;;;;;;10.27;2.70;;;;;;;21.74;50.25;102096.97;4845407;29;20086;-79
2022/06/10 07:56:44;;;;;;;10.95;2.60;;;;;;;21.73;50.41;102100.47;4815097;29;20074;-78
2022/06/10 07:59:10;;;;;;;10.43;2.63;;;;;;;21.66;50.76;102103.13;4861827;29;20057;-79
2022/06/10 08:01:36;;;;;;;9.93;2.47;;;;;;;21.59;51.32;102109.31;4830513;29;20036;-78
2022/06/10 08:04:06;;;;;;;9.80;2.67;;;;;;;21.64;51.24;102104.91;4862120;29;20030;-79
2022/06/10 08:06:32;;;;;;;9.98;2.70;;;;;;;21.70;51.23;102100.50;4845278;29;20421;-78
2022/06/10 08:08:58;;;;;;;8.73;2.63;;;;;;;21.91;50.86;102096.00;4845310;29;20125;-78
2022/06/10 08:11:23;;;;;;;9.55;2.33;;;;;;;22.25;50.00;102098.34;4817094;29;20057;-78
2022/06/10 08:13:49;;;;;;;10.73;2.47;;;;;;;22.75;48.85;102089.09;4817175;29;20116;-79
2022/06/10 08:16:15;;;;;;;11.25;2.70;;;;;;;22.90;49.04;102078.41;4862206;29;20032;-79
2022/06/10 08:18:41;;;;;;;10.13;2.72;;;;;;;22.55;50.17;102082.31;4861689;29;20108;-79
2022/06/10 08:23:51;;;;;;;7.65;2.63;;;;;;;22.21;51.01;102087.00;4861749;29;20044;-78
2022/06/10 08:26:20;;;;;;;9.10;2.50;;;;;;;22.17;51.31;102091.41;4844757;29;20442;-78
2022/06/10 08:28:46;;;;;;;11.93;2.60;;;;;;;21.94;51.49;102099.44;4845323;29;20105;-78
2022/06/10 08:31:12;;;;;;;10.13;2.78;;;;;;;21.84;51.79;102102.13;4845012;29;20033;-79
2022/06/10 08:33:38;;;;;;;8.30;2.60;;;;;;;21.77;52.04;102098.69;4861475;29;20080;-79
2022/06/10 08:36:04;;;;;;;8.98;2.50;;;;;;;21.80;52.05;102101.31;4814782;29;20044;-79
2022/06/10 08:38:30;;;;;;;11.25;2.85;;;;;;;21.81;52.11;102104.78;4862783;29;20116;-79
2022/06/10 08:41:04;;;;;;;10.63;2.95;;;;;;;21.78;51.77;102103.06;4833140;29;20474;-80
2022/06/10 08:43:39;;;;;;;10.23;2.35;;;;;;;21.80;51.86;102096.06;4848488;29;20030;-81
2022/06/10 08:46:23;;;;;;;10.25;2.63;;;;;;;22.01;51.25;102096.78;4850237;29;20496;-81
2022/06/10 08:49:03;;;;;;;13.88;2.70;;;;;;;21.96;51.79;102096.81;4850325;29;20112;-81
2022/06/10 08:51:41;;;;;;;9.73;2.50;;;;;;;22.58;49.71;102090.16;4849398;29;20369;-81
2022/06/10 08:54:25;;;;;;;11.90;2.63;;;;;;;23.17;48.31;102092.97;4875690;29;20025;-81
2022/06/10 08:56:56;;;;;;;11.48;2.67;;;;;;;23.01;48.84;102083.56;4869336;29;20041;-82
2022/06/10 08:59:40;;;;;;;7.72;2.60;;;;;;;22.66;49.25;102095.31;4850910;29;20025;-82
2022/06/10 09:02:31;;;;;;;8.93;2.92;;;;;;;22.65;49.58;102085.72;4871706;29;20036;-82
2022/06/10 09:05:06;;;;;;;9.13;2.63;;;;;;;22.41;50.16;102088.56;4857918;29;20033;-82
2022/06/10 09:07:43;;;;;;;13.85;2.75;;;;;;;22.34;50.30;102095.63;4858454;29;20041;-82
2022/06/10 09:10:23;;;;;;;10.48;2.38;;;;;;;22.31;50.74;102093.91;4858099;29;20030;-81
2022/06/10 09:13:11;;;;;;;11.25;2.83;;;;;;;22.27;50.86;102102.69;4875719;29;20088;-81
2022/06/10 09:15:54;;;;;;;7.75;2.53;;;;;;;22.27;50.28;102092.19;4854327;29;20030;-81
2022/06/10 09:18:32;;;;;;;9.63;2.20;;;;;;;22.33;50.35;102094.75;4865262;29;20030;-81
2022/06/10 09:21:24;;;;;;;9.60;2.45;;;;;;;22.54;49.88;102096.31;4865505;29;20108;-80
2022/06/10 09:23:52;;;;;;;7.30;2.28;;;;;;;22.72;49.45;102090.00;4866589;29;20504;-82
2022/06/10 09:26:46;;;;;;;8.40;2.05;;;;;;;22.56;49.65;102091.94;4849014;29;20093;-81
2022/06/10 09:29:12;;;;;;;5.65;1.75;;;;;;;22.63;49.34;102091.88;4865222;29;20030;-81
2022/06/10 09:31:44;;;;;;;6.90;1.83;;;;;;;22.76;48.88;102096.09;4833383;29;20549;-81
2022/06/10 09:34:23;;;;;;;7.00;1.80;;;;;;;22.99;47.95;102098.41;4848740;29;20049;-81
2022/06/10 09:37:15;;;;;;;4.75;1.58;;;;;;;22.99;47.54;102087.91;4864533;29;20025;-82
2022/06/10 09:43:03;;;;;;;7.25;2.00;;;;;;;22.63;47.97;102094.50;4864945;29;20040;-81
2022/06/10 09:45:39;;;;;;;5.28;2.00;;;;;;;22.43;48.49;102100.81;4826634;29;20037;-81
2022/06/10 09:48:37;;;;;;;4.90;1.63;;;;;;;22.57;48.35;102101.53;4847785;29;20056;-82
2022/06/10 09:51:14;;;;;;;8.00;1.90;;;;;;;22.72;48.09;102092.63;4817519;29;20038;-81
2022/06/10 09:54:07;;;;;;;5.03;1.63;;;;;;;22.65;47.80;102098.81;4847910;29;20112;-80
2022/06/10 09:56:56;;;;;;;6.47;1.50;;;;;;;22.52;47.88;102094.59;4847213;29;20018;-81
2022/06/10 09:59:22;;;;;;;6.03;1.70;;;;;;;22.41;48.11;102091.19;4847384;29;20029;-81
2022/06/10 10:02:07;;;;;;;4.82;1.52;;;;;;;22.63;47.38;102099.72;4847341;29;20037;-79
2022/06/10 10:04:44;;;;;;;5.90;1.73;;;;;;;22.79;46.89;102091.66;4840344;29;20132;-80
2022/06/10 10:07:25;;;;;;;5.75;1.42;;;;;;;22.84;46.66;102090.72;4848026;29;20121;-81
2022/06/10 10:10:18;;;;;;;6.35;1.63;;;;;;;22.77;46.54;102111.78;4864234;29;20484;-81
2022/06/10 10:12:55;;;;;;;8.45;1.85;;;;;;;22.83;46.17;102116.13;4864397;29;20036;-81
2022/06/10 10:15:43;;;;;;;4.68;1.65;;;;;;;22.85;45.75;102097.72;4847032;29;20108;-81
2022/06/10 10:18:27;;;;;;;4.47;1.80;;;;;;;22.86;45.93;102099.47;4847166;29;20121;-81
2022/06/10 10:21:04;;;;;;;5.32;1.80;;;;;;;22.88;45.65;102103.78;4846780;29;20098;-81
2022/06/10 10:23:46;;;;;;;6.20;1.90;;;;;;;22.86;45.49;102099.47;4846952;29;20037;-81
2022/06/10 10:26:34;;;;;;;4.78;1.50;;;;;;;22.68;46.12;102108.41;4847124;29;20017;-80
2022/06/10 10:29:18;;;;;;;6.60;1.90;;;;;;;22.52;46.46;102098.09;4847287;29;20129;-81
2022/06/10 10:32:28;;;;;;;4.80;1.70;;;;;;;22.38;46.94;102105.22;4846302;29;20029;-80
2022/06/10 10:35:03;;;;;;;6.93;1.80;;;;;;;22.32;46.95;102110.50;4858995;29;20065;-80
2022/06/10 10:37:32;;;;;;;6.18;1.98;;;;;;;22.24;47.28;102115.84;4846201;29;20026;-81
2022/06/10 10:40:07;;;;;;;8.35;2.17;;;;;;;22.25;47.42;102119.31;4846177;29;20037;-81
2022/06/10 10:42:41;;;;;;;8.45;2.10;;;;;;;22.22;47.51;102124.56;4833889;29;20033;-82
2022/06/10 10:45:29;;;;;;;6.43;1.92;;;;;;;22.17;47.72;102127.25;4864042;29;20025;-81
2022/06/10 10:47:58;;;;;;;8.13;2.00;;;;;;;22.16;47.48;102128.97;4848603;29;20038;-81
2022/06/10 10:50:34;;;;;;;7.68;1.90;;;;;;;22.13;48.08;102128.13;4847750;29;20049;-81
2022/06/10 10:53:06;;;;;;;8.13;2.33;;;;;;;22.11;48.14;102133.38;4848163;29;20033;-80
2022/06/10 10:55:36;;;;;;;5.20;1.92;;;;;;;22.10;48.03;102133.38;4848569;29;20030;-80
2022/06/10 10:58:21;;;;;;;8.38;2.05;;;;;;;22.11;48.53;102138.63;4852839;29;20022;-82
2022/06/10 11:03:57;;;;;;;5.93;1.70;;;;;;;22.12;48.50;102134.25;4859884;29;20400;-82
2022/06/10 11:06:30;;;;;;;6.72;2.03;;;;;;;22.10;48.47;102130.75;4857539;29;20017;-80
2022/06/10 11:09:24;;;;;;;6.07;2.33;;;;;;;22.10;48.43;102136.91;4846508;29;20128;-82
2022/06/10 11:11:52;;;;;;;8.77;2.25;;;;;;;22.10;48.40;102138.63;4855839;29;20037;-83
2022/06/10 11:14:45;;;;;;;7.18;2.30;;;;;;;22.08;48.25;102128.19;4861156;29;20039;-80
2022/06/10 11:17:11;;;;;;;10.02;2.05;;;;;;;22.08;48.46;102127.28;4850919;29;20037;-80
2022/06/10 11:19:37;;;;;;;7.90;2.38;;;;;;;22.10;48.17;102134.28;4862596;29;20385;-79
2022/06/10 11:22:02;;;;;;;6.22;2.00;;;;;;;22.12;47.94;102135.16;4862014;29;20045;-79
2022/06/10 11:24:40;;;;;;;8.38;2.47;;;;;;;22.14;48.05;102135.09;4845710;29;20030;-79
2022/06/10 11:27:20;;;;;;;8.32;2.15;;;;;;;22.14;47.97;102141.22;4845396;29;20461;-78
2022/06/10 11:30:01;;;;;;;6.95;2.42;;;;;;;22.12;48.07;102136.88;4845623;29;20038;-79
2022/06/10 11:32:33;;;;;;;8.70;2.38;;;;;;;22.14;47.99;102138.59;4845221;29;20033;-79
2022/06/10 11:35:03;;;;;;;10.40;2.65;;;;;;;22.19;47.92;102131.59;4845350;29;20045;-79
2022/06/10 11:37:40;;;;;;;5.55;2.30;;;;;;;22.25;47.76;102127.19;4862279;29;20078;-79
2022/06/10 11:40:15;;;;;;;6.30;2.20;;;;;;;22.21;47.78;102134.19;4846518;29;20029;-80
2022/06/10 11:42:52;;;;;;;7.65;2.25;;;;;;;22.19;48.12;102130.72;4845503;29;20054;-79
2022/06/10 11:45:25;;;;;;;6.88;2.50;;;;;;;22.22;47.80;102140.31;4845200;29;20033;-79
2022/06/10 11:48:23;;;;;;;6.68;2.40;;;;;;;22.24;47.95;102133.34;4845078;29;20056;-79
2022/06/10 11:50:48;;;;;;;6.90;2.28;;;;;;;22.25;47.74;102142.91;4844538;29;20038;-79
2022/06/10 11:53:32;;;;;;;6.63;2.30;;;;;;;22.23;47.84;102131.56;4845045;29;20357;-80
2022/06/10 12:01:46;;;;;;;7.63;2.50;;;;;;;22.15;47.69;102132.47;4867824;29;20092;-81
2022/06/10 12:04:21;;;;;;;7.70;2.70;;;;;;;22.21;47.37;102139.44;4848954;29;20066;-79
2022/06/10 12:06:53;;;;;;;8.07;2.60;;;;;;;22.26;47.39;102132.44;4846587;29;20073;-80
2022/06/10 12:09:59;;;;;;;10.75;2.80;;;;;;;22.28;47.15;102138.53;4862788;29;20388;-80
2022/06/10 12:12:32;;;;;;;9.43;2.40;;;;;;;22.31;46.96;102145.50;4815485;29;20049;-80
2022/06/10 12:15:02;;;;;;;8.40;2.38;;;;;;;22.33;46.82;102143.72;4856538;29;20033;-81
2022/06/10 12:17:38;;;;;;;10.48;2.83;;;;;;;22.33;46.12;102126.22;4849273;29;20041;-80
2022/06/10 12:20:25;;;;;;;12.10;3.00;;;;;;;22.32;45.35;102137.63;4866118;29;20045;-79
2022/06/10 12:22:51;;;;;;;10.15;2.92;;;;;;;22.35;45.32;102144.59;4830279;29;20038;-80
2022/06/10 12:26:08;;;;;;;7.57;2.60;;;;;;;22.41;45.20;102141.03;4818045;29;20041;-80
2022/06/10 12:28:42;;;;;;;11.25;2.80;;;;;;;22.38;45.08;102139.31;4834134;29;20454;-79
2022/06/10 12:31:20;;;;;;;14.02;2.97;;;;;;;22.38;45.08;102134.06;4865255;29;20451;-79
2022/06/10 12:34:00;;;;;;;13.30;3.10;;;;;;;22.33;45.40;102139.34;4865529;29;20560;-80